Flight Track Log - Related Links

Times and Time Zones

All times are in EST time to prevent confusion due to time zone crossing. See the UCA3599 flight status page for this flight to view local times or setup timezone preferences in your user account.

Time Position Orientation Groundspeed Altitude Reporting Facility
EST Latitude Longitude Course Direction KTS MPH feet Rate Location/Type
05:58AM 42.1356 -75.8942 211° Southwest 241 277 4,700  Level New York Center
05:59AM 42.0958 -75.8461 138° Southeast 208 239 6,000 1,350 Climbing New York Center
06:00AM 42.0467 -75.8286 165° South 174 200 7,400 1,400 Climbing New York Center
06:01AM 42.0200 -75.8711 230° Southwest 149 171 8,800 1,250 Climbing New York Center
06:02AM 41.9889 -75.9161 227° Southwest 161 185 9,900 1,200 Climbing New York Center
06:03AM 41.7850 -76.1807 211° Southwest  Level Estimated
06:03AM 41.9511 -75.9689 226° Southwest 178 205 11,200  Level New York Center
06:04AM 41.9136 -76.0161 223° Southwest 189 217 12,000 400 Climbing New York Center
06:05AM 41.8717 -76.0742 226° Southwest 201 231 12,000  Level New York Center
06:06AM 41.8294 -76.1292 224° Southwest 226 260 12,000 150 Level New York Center
06:07AM 41.7764 -76.1972 224° Southwest 242 278 12,300 850 Climbing New York Center
06:08AM 41.7364 -76.2525 226° Southwest 231 266 13,700 850 Climbing New York Center
06:09AM 41.6944 -76.3072 224° Southwest 217 250 14,000 600 Climbing New York Center
06:10AM 41.6542 -76.3622 226° Southwest 217 250 14,900 900 Climbing New York Center
06:11AM 41.6122 -76.4172 224° Southwest 217 250 15,800 550 Climbing New York Center
06:12AM 41.5611 -76.4794 222° Southwest 219 252 16,000 100 Climbing New York Center
06:13AM 41.4953 -76.5069 197° South 242 278 16,000  Level New York Center
06:14AM 41.4272 -76.5344 197° South 258 297 16,000  Level New York Center
06:15AM 41.3678 -76.5625 200° South 258 297 16,000  Level New York Center
06:16AM 41.2931 -76.5975 199° South 258 297 16,000  Level New York Center
06:17AM 41.2250 -76.6247 197° South 258 297 16,000  Level New York Center
06:18AM 41.1569 -76.6547 198° South 258 297 16,000  Level New York Center
06:19AM 41.0972 -76.6825 199° South 258 297 16,000  Level New York Center
06:20AM 41.0203 -76.7197 200° South 258 297 16,000  Level New York Center
06:21AM 40.9542 -76.7469 197° South 258 297 16,000  Level New York Center
06:22AM 40.8967 -76.7750 200° South 251 289 16,000  Level New York Center
06:23AM 40.8306 -76.8047 199° South 256 295 16,000  Level New York Center
06:24AM 40.7517 -76.8389 198° South 256 295 16,000  Level New York Center
06:25AM 40.6919 -76.8636 197° South 256 295 16,000  Level New York Center
06:26AM 40.6153 -76.8953 197° South 256 295 16,000  Level New York Center
06:27AM 40.5539 -76.9169 195° South 262 302 16,000  Level New York Center
06:28AM 40.4753 -76.9428 194° South 267 307 16,000  Level New York Center
06:29AM 40.4031 -76.9692 196° South 267 307 16,000  Level New York Center
06:30AM 40.3350 -76.9931 195° South 267 307 16,000 -768 Level New York Center
06:32AM 40.2000 -77.0333 193° South 280 322 13,900 -1,244 Descending Potomac TRACON
06:33AM 40.1333 -77.0667 201° Southwest 274 315 12,600 -1,300 Descending Potomac TRACON
06:34AM 40.0667 -77.1000 201° Southwest 271 312 11,300 -1,316 Descending Potomac TRACON
06:35AM 40.0000 -77.1167 191° South 261 300 10,100 -1,150 Descending Potomac TRACON
06:36AM 39.9333 -77.1667 210° Southwest 253 291 9,000 -550 Descending Potomac TRACON
06:37AM 39.8667 -77.2000 201° Southwest 242 278 9,000 -316 Level Potomac TRACON
06:38AM 39.8167 -77.2333 207° Southwest 243 280 8,400 -750 Descending Potomac TRACON
06:39AM 39.7500 -77.2833 210° Southwest 239 275 7,500 -895 Descending Potomac TRACON
06:40AM 39.7000 -77.3333 218° Southwest 238 274 6,700 -778 Descending Potomac TRACON
06:41AM 39.6500 -77.3667 207° Southwest 244 281 6,100 -474 Descending Potomac TRACON
06:42AM 39.6000 -77.4000 207° Southwest 245 282 5,800 -450 Descending Potomac TRACON
06:43AM 39.5333 -77.4167 191° South 249 287 5,200 -632 Descending Potomac TRACON
06:44AM 39.4667 -77.4333 191° South 240 276 4,600 -667 Descending Potomac TRACON
06:44AM 39.4167 -77.4333 180° South 238 274 4,000 -316 Descending Potomac TRACON
06:45AM 39.3500 -77.4333 180° South 229 264 4,000  Level Potomac TRACON
06:46AM 39.2833 -77.4333 180° South 224 258 4,000 -200 Level Potomac TRACON
06:47AM 39.2167 -77.4333 180° South 230 265 3,600 -500 Descending Potomac TRACON
06:48AM 39.1500 -77.4333 180° South 233 268 3,000 -316 Descending Potomac TRACON
06:49AM 39.1000 -77.4333 180° South 217 250 3,000 -474 Level Potomac TRACON
06:50AM 39.0500 -77.4333 180° South 175 201 2,100 -800 Descending Potomac TRACON
06:51AM 39.0167 -77.4333 180° South 131 151 1,400 -684 Descending Potomac TRACON
06:52AM 38.9833 -77.4333 180° South 107 123 800 -667 Descending Potomac TRACON
06:54AM 38.9474 -77.4599 180° South  Level Estimated
07:01AM 38.9474 -77.4599 349° North  Level Estimated
07:02AM 38.9474 -77.4599 349° North  Level Estimated

Login

Don't have an account? Register now (free) for customized features, flight alerts, and more!